Time;durP1;ratioP1;P1;durP2;ratioP2;P2;SDS_P1;SDS_P2;PMS_P1;PMS_P2;Temp;Humidity;BMP_temperature;BMP_pressure;BME280_temperature;BME280_humidity;BME280_pressure;Samples;Min_cycle;Max_cycle;Signal;HPM_P1;HPM_P2
2023/05/07 04:13:55;;;;;;;10.63;9.55;;;;;;;;;;4945122;28;20389;-93
2023/05/07 04:16:20;;;;;;;9.52;8.25;;;;;;;;;;4928163;29;20027;-94
2023/05/07 04:18:45;;;;;;;8.45;7.75;;;;;;;;;;4932616;29;20050;-95
2023/05/07 04:21:17;;;;;;;7.40;6.80;;;;;;;;;;4945260;28;20054;-88
2023/05/07 04:23:43;;;;;;;13.77;12.55;;;;;;;;;;4923227;29;20035;-85
2023/05/07 04:26:08;;;;;;;10.85;9.75;;;;;;;;;;4942473;29;20035;-84
2023/05/07 04:28:34;;;;;;;15.32;13.82;;;;;;;;;;4940345;29;20034;-87
2023/05/07 04:30:59;;;;;;;8.73;8.02;;;;;;;;;;4927578;29;20039;-85
2023/05/07 04:33:24;;;;;;;9.18;8.45;;;;;;;;;;4930175;29;20121;-86
2023/05/07 04:35:50;;;;;;;9.07;8.20;;;;;;;;;;4942124;29;20751;-85
2023/05/07 04:38:16;;;;;;;8.27;7.17;;;;;;;;;;4941915;29;20454;-87
2023/05/07 04:40:42;;;;;;;9.48;6.65;;;;;;;;;;4924334;29;20019;-86
2023/05/07 04:43:08;;;;;;;4.80;4.32;;;;;;;;;;4925579;29;20035;-85
2023/05/07 04:45:34;;;;;;;4.65;4.35;;;;;;;;;;4923124;29;20058;-86
2023/05/07 04:47:59;;;;;;;5.82;5.43;;;;;;;;;;4943096;29;20524;-86
2023/05/07 04:50:25;;;;;;;6.77;6.20;;;;;;;;;;4923772;29;20037;-87
2023/05/07 04:52:50;;;;;;;6.32;5.65;;;;;;;;;;4943294;29;20023;-87
2023/05/07 04:55:16;;;;;;;5.93;5.53;;;;;;;;;;4932983;29;20055;-87
2023/05/07 04:57:41;;;;;;;6.80;6.20;;;;;;;;;;4942693;29;20026;-86
2023/05/07 05:00:08;;;;;;;5.67;5.17;;;;;;;;;;4943695;29;20019;-87
2023/05/07 05:02:34;;;;;;;5.83;5.33;;;;;;;;;;4941014;29;20341;-87
2023/05/07 05:04:59;;;;;;;5.30;4.90;;;;;;;;;;4945133;29;20473;-86
2023/05/07 05:07:25;;;;;;;5.22;4.72;;;;;;;;;;4942032;29;20057;-86
2023/05/07 05:09:50;;;;;;;6.03;5.53;;;;;;;;;;4945399;28;20114;-88
2023/05/07 05:12:15;;;;;;;5.90;5.40;;;;;;;;;;4944537;29;20122;-88
2023/05/07 05:14:40;;;;;;;4.33;3.97;;;;;;;;;;4947591;29;20030;-88
2023/05/07 05:17:06;;;;;;;4.43;4.03;;;;;;;;;;4927572;29;20058;-90
2023/05/07 05:19:31;;;;;;;4.63;4.20;;;;;;;;;;4944497;29;20047;-90
2023/05/07 05:21:56;;;;;;;4.00;3.47;;;;;;;;;;4945803;29;20495;-90
2023/05/07 05:24:22;;;;;;;3.60;3.30;;;;;;;;;;4943733;29;20086;-89
2023/05/07 05:26:47;;;;;;;4.38;3.30;;;;;;;;;;4945243;29;20505;-88
2023/05/07 05:29:12;;;;;;;3.90;3.60;;;;;;;;;;4943091;29;20417;-88
2023/05/07 05:31:38;;;;;;;4.10;3.80;;;;;;;;;;4927609;29;20031;-85
2023/05/07 05:34:03;;;;;;;3.90;3.50;;;;;;;;;;4926282;29;20027;-88
2023/05/07 05:36:28;;;;;;;4.60;3.97;;;;;;;;;;4944963;29;20259;-90
2023/05/07 05:38:54;;;;;;;7.30;4.00;;;;;;;;;;4931029;29;20031;-92
2023/05/07 05:41:20;;;;;;;4.20;3.90;;;;;;;;;;4938328;29;20031;-88
2023/05/07 05:43:45;;;;;;;3.67;3.38;;;;;;;;;;4927737;29;20481;-89
2023/05/07 05:46:11;;;;;;;5.77;3.57;;;;;;;;;;4925963;29;20031;-89
2023/05/07 05:48:36;;;;;;;3.60;3.35;;;;;;;;;;4945561;29;20027;-90
2023/05/07 05:51:02;;;;;;;4.70;3.70;;;;;;;;;;4943473;29;20035;-90
2023/05/07 05:53:27;;;;;;;5.53;3.80;;;;;;;;;;4928527;29;20026;-91
2023/05/07 05:55:52;;;;;;;5.50;4.07;;;;;;;;;;4943798;29;20027;-90
2023/05/07 05:58:18;;;;;;;3.70;3.40;;;;;;;;;;4928322;29;20118;-91
2023/05/07 06:00:44;;;;;;;4.73;3.70;;;;;;;;;;4943658;29;20019;-86
2023/05/07 06:03:10;;;;;;;8.90;3.93;;;;;;;;;;4926495;29;20035;-90
2023/05/07 06:05:35;;;;;;;4.30;3.85;;;;;;;;;;4946411;29;20031;-89
2023/05/07 06:08:00;;;;;;;3.90;3.37;;;;;;;;;;4942467;29;20023;-91
2023/05/07 06:10:26;;;;;;;3.73;3.40;;;;;;;;;;4943458;28;20031;-88
2023/05/07 06:12:52;;;;;;;4.30;3.90;;;;;;;;;;4940236;29;20067;-87
2023/05/07 06:15:17;;;;;;;7.53;3.97;;;;;;;;;;4941533;29;20035;-87
2023/05/07 06:17:42;;;;;;;4.68;4.28;;;;;;;;;;4937452;29;20255;-88
2023/05/07 06:20:08;;;;;;;4.45;4.05;;;;;;;;;;4941962;29;20023;-86
2023/05/07 06:22:33;;;;;;;4.72;4.32;;;;;;;;;;4941235;28;20023;-84
2023/05/07 06:24:59;;;;;;;4.38;4.03;;;;;;;;;;4933850;29;20038;-84
2023/05/07 06:27:24;;;;;;;4.60;4.20;;;;;;;;;;4937779;29;20037;-84
2023/05/07 06:29:49;;;;;;;9.00;4.30;;;;;;;;;;4922205;29;20720;-88
2023/05/07 06:32:15;;;;;;;5.65;4.22;;;;;;;;;;4944557;29;20032;-86
2023/05/07 06:34:40;;;;;;;5.13;4.07;;;;;;;;;;4941008;29;20019;-84
2023/05/07 06:37:06;;;;;;;7.05;4.60;;;;;;;;;;4915139;29;20406;-84
2023/05/07 06:39:31;;;;;;;5.03;4.22;;;;;;;;;;4931330;29;20477;-86
2023/05/07 06:41:57;;;;;;;4.15;3.85;;;;;;;;;;4939571;29;20027;-85
2023/05/07 06:44:22;;;;;;;5.05;4.00;;;;;;;;;;4924744;29;20062;-88
2023/05/07 06:46:48;;;;;;;6.87;5.27;;;;;;;;;;4941202;29;20658;-85
2023/05/07 06:49:13;;;;;;;6.95;5.03;;;;;;;;;;4942241;29;20262;-85
2023/05/07 06:51:39;;;;;;;5.68;5.20;;;;;;;;;;4938979;29;20015;-81
2023/05/07 06:54:04;;;;;;;7.60;4.95;;;;;;;;;;4921551;29;20459;-84
2023/05/07 06:56:30;;;;;;;5.15;4.50;;;;;;;;;;4930444;29;20489;-84
2023/05/07 06:58:55;;;;;;;5.22;4.72;;;;;;;;;;4930009;29;20065;-84
2023/05/07 07:01:20;;;;;;;4.97;4.57;;;;;;;;;;4938825;29;20027;-84
2023/05/07 07:03:46;;;;;;;5.67;5.13;;;;;;;;;;4935137;29;20583;-86
2023/05/07 07:06:11;;;;;;;5.97;4.55;;;;;;;;;;4925111;29;20039;-86
2023/05/07 07:08:38;;;;;;;6.75;4.80;;;;;;;;;;4933876;29;20151;-83
2023/05/07 07:11:04;;;;;;;6.18;5.30;;;;;;;;;;4938722;28;20106;-85
2023/05/07 07:13:29;;;;;;;6.30;4.50;;;;;;;;;;4899088;29;1269660;-82
2023/05/07 07:15:54;;;;;;;7.03;5.00;;;;;;;;;;4945166;29;20140;-85
2023/05/07 07:18:20;;;;;;;5.83;5.10;;;;;;;;;;4926583;29;20342;-87
2023/05/07 07:20:45;;;;;;;6.47;5.20;;;;;;;;;;4946003;29;20019;-87
2023/05/07 07:23:11;;;;;;;5.78;5.25;;;;;;;;;;4945321;29;20026;-87
2023/05/07 07:25:36;;;;;;;5.78;4.95;;;;;;;;;;4926670;29;20035;-89
2023/05/07 07:28:01;;;;;;;5.53;4.70;;;;;;;;;;4928080;29;20049;-85
2023/05/07 07:30:26;;;;;;;6.53;5.93;;;;;;;;;;4920956;29;20083;-84
2023/05/07 07:32:52;;;;;;;6.22;5.63;;;;;;;;;;4924494;29;20102;-85
2023/05/07 07:35:18;;;;;;;5.20;4.80;;;;;;;;;;4939481;29;20058;-86
2023/05/07 07:37:43;;;;;;;6.57;5.88;;;;;;;;;;4928555;29;20059;-86
2023/05/07 07:40:09;;;;;;;8.63;6.15;;;;;;;;;;4943178;29;20026;-86
2023/05/07 07:42:34;;;;;;;7.20;5.90;;;;;;;;;;4941133;29;20561;-88
2023/05/07 07:44:59;;;;;;;8.30;5.55;;;;;;;;;;4943728;29;20114;-92
2023/05/07 07:47:25;;;;;;;6.25;5.70;;;;;;;;;;4929613;29;20027;-91
2023/05/07 07:49:50;;;;;;;7.20;6.55;;;;;;;;;;4931093;29;20023;-89
2023/05/07 07:52:15;;;;;;;10.50;6.53;;;;;;;;;;4927309;29;20026;-87
2023/05/07 07:54:41;;;;;;;5.93;5.40;;;;;;;;;;4929602;29;20607;-89
2023/05/07 07:57:06;;;;;;;6.68;5.78;;;;;;;;;;4945591;29;20127;-90
2023/05/07 07:59:31;;;;;;;6.70;6.20;;;;;;;;;;4929786;29;20047;-87
2023/05/07 08:01:57;;;;;;;7.70;6.57;;;;;;;;;;4927131;29;20035;-84
2023/05/07 08:04:22;;;;;;;8.07;5.75;;;;;;;;;;4927487;29;20027;-83
2023/05/07 08:06:47;;;;;;;6.07;4.82;;;;;;;;;;4926587;29;20042;-87
2023/05/07 08:09:13;;;;;;;6.57;4.78;;;;;;;;;;4942730;29;20099;-91
2023/05/07 08:11:38;;;;;;;7.10;5.50;;;;;;;;;;4928200;29;20027;-87
2023/05/07 08:14:03;;;;;;;7.97;5.32;;;;;;;;;;4940594;29;20720;-87
2023/05/07 08:16:29;;;;;;;5.95;4.60;;;;;;;;;;4926604;29;20035;-86
2023/05/07 08:18:54;;;;;;;7.88;3.85;;;;;;;;;;4942640;29;20085;-88
2023/05/07 08:21:20;;;;;;;3.58;3.30;;;;;;;;;;4944622;29;20031;-86
2023/05/07 08:23:45;;;;;;;5.05;3.95;;;;;;;;;;4925802;29;20398;-86
2023/05/07 08:26:11;;;;;;;4.45;3.80;;;;;;;;;;4926216;29;20638;-86
2023/05/07 08:28:36;;;;;;;4.50;3.83;;;;;;;;;;4931577;29;20087;-85
2023/05/07 08:31:01;;;;;;;6.40;4.50;;;;;;;;;;4940485;29;20102;-86
2023/05/07 08:33:27;;;;;;;4.93;4.43;;;;;;;;;;4944865;29;20504;-88
2023/05/07 08:35:52;;;;;;;6.22;4.40;;;;;;;;;;4941785;29;20389;-87
2023/05/07 08:38:18;;;;;;;3.95;3.45;;;;;;;;;;4944409;29;20495;-86
2023/05/07 08:40:43;;;;;;;3.95;3.65;;;;;;;;;;4927416;29;20058;-87
2023/05/07 08:43:12;;;;;;;3.80;3.50;;;;;;;;;;4915625;29;20035;-86
2023/05/07 08:45:39;;;;;;;6.32;3.42;;;;;;;;;;4941469;28;20101;-87
2023/05/07 08:48:08;;;;;;;2.97;2.78;;;;;;;;;;4945713;29;20118;-87
2023/05/07 08:50:35;;;;;;;3.00;2.78;;;;;;;;;;4943575;29;20019;-86
2023/05/07 08:53:02;;;;;;;3.40;3.00;;;;;;;;;;4928573;29;20086;-87
2023/05/07 08:55:28;;;;;;;2.65;2.45;;;;;;;;;;4939228;29;20322;-85
2023/05/07 08:57:53;;;;;;;4.47;3.10;;;;;;;;;;4925068;29;20617;-85
2023/05/07 09:00:19;;;;;;;3.42;3.20;;;;;;;;;;4944219;29;20102;-86
2023/05/07 09:02:44;;;;;;;5.68;2.92;;;;;;;;;;4925448;29;20109;-87
2023/05/07 09:05:09;;;;;;;3.45;3.15;;;;;;;;;;4925538;29;20553;-86
2023/05/07 09:07:35;;;;;;;3.25;2.95;;;;;;;;;;4930423;29;20015;-87
2023/05/07 09:10:04;;;;;;;3.77;2.50;;;;;;;;;;4933401;29;20031;-87
2023/05/07 09:12:29;;;;;;;5.65;2.63;;;;;;;;;;4917096;29;20058;-86
2023/05/07 09:14:54;;;;;;;2.80;2.60;;;;;;;;;;4932254;29;20027;-85
2023/05/07 09:17:20;;;;;;;2.65;2.40;;;;;;;;;;4934804;29;20024;-86
2023/05/07 09:19:45;;;;;;;2.88;2.67;;;;;;;;;;4935700;29;20031;-87
2023/05/07 09:22:11;;;;;;;3.22;2.28;;;;;;;;;;4939513;29;20031;-86
2023/05/07 09:24:37;;;;;;;3.70;2.50;;;;;;;;;;4922601;29;20035;-87
2023/05/07 09:27:03;;;;;;;2.85;2.40;;;;;;;;;;4944027;29;20029;-87
2023/05/07 09:29:29;;;;;;;3.47;2.50;;;;;;;;;;4932010;29;20023;-85
2023/05/07 09:31:55;;;;;;;3.15;2.85;;;;;;;;;;4925410;29;20472;-86
2023/05/07 09:34:21;;;;;;;3.33;3.03;;;;;;;;;;4925901;29;20114;-85
2023/05/07 09:36:46;;;;;;;3.80;2.97;;;;;;;;;;4941170;29;20067;-85
2023/05/07 09:39:12;;;;;;;3.42;2.38;;;;;;;;;;4925833;29;20469;-85
2023/05/07 09:41:45;;;;;;;2.85;2.45;;;;;;;;;;4923350;29;20548;-86
2023/05/07 09:44:10;;;;;;;5.50;2.80;;;;;;;;;;4925982;29;20027;-86
2023/05/07 09:46:38;;;;;;;3.25;2.50;;;;;;;;;;4925899;29;20057;-89
2023/05/07 09:49:06;;;;;;;3.35;2.70;;;;;;;;;;4927128;29;20034;-88
2023/05/07 09:51:31;;;;;;;3.50;2.78;;;;;;;;;;4926502;29;20027;-85
2023/05/07 09:53:57;;;;;;;5.70;2.40;;;;;;;;;;4942060;29;20038;-87
2023/05/07 09:56:23;;;;;;;2.60;2.40;;;;;;;;;;4944699;28;20035;-84
2023/05/07 09:58:49;;;;;;;3.25;2.95;;;;;;;;;;4927656;29;20581;-85
2023/05/07 10:01:17;;;;;;;4.22;3.50;;;;;;;;;;4946576;29;20516;-88
2023/05/07 10:03:43;;;;;;;3.35;3.00;;;;;;;;;;4944043;29;20023;-87
2023/05/07 10:06:10;;;;;;;4.10;2.78;;;;;;;;;;4938449;29;20050;-83
2023/05/07 10:08:35;;;;;;;4.20;2.75;;;;;;;;;;4941144;29;20107;-86
2023/05/07 10:11:01;;;;;;;3.92;2.60;;;;;;;;;;4935118;29;20181;-87
2023/05/07 10:13:26;;;;;;;2.72;2.30;;;;;;;;;;4940602;29;20040;-87
2023/05/07 10:15:52;;;;;;;3.10;2.45;;;;;;;;;;4930533;29;20035;-84
2023/05/07 10:18:22;;;;;;;4.13;2.38;;;;;;;;;;4936828;29;20028;-85
2023/05/07 10:20:48;;;;;;;4.78;2.70;;;;;;;;;;4937194;29;20020;-87
2023/05/07 10:23:15;;;;;;;4.68;2.78;;;;;;;;;;4936734;29;20346;-87
2023/05/07 10:25:41;;;;;;;3.60;2.60;;;;;;;;;;4924903;29;20530;-86
2023/05/07 10:28:08;;;;;;;5.55;2.58;;;;;;;;;;4941182;29;20042;-91
2023/05/07 10:30:33;;;;;;;5.85;2.58;;;;;;;;;;4947228;29;20038;-91
2023/05/07 10:33:05;;;;;;;2.73;2.30;;;;;;;;;;4932026;29;20031;-89
2023/05/07 10:35:32;;;;;;;2.95;2.28;;;;;;;;;;4931843;29;20372;-89
2023/05/07 10:37:58;;;;;;;3.33;2.45;;;;;;;;;;4946557;29;20019;-92
2023/05/07 10:40:23;;;;;;;2.45;2.22;;;;;;;;;;4946361;29;20461;-90
2023/05/07 10:42:56;;;;;;;3.72;2.40;;;;;;;;;;4942339;29;20058;-89
2023/05/07 10:45:22;;;;;;;5.13;2.55;;;;;;;;;;4941980;29;20579;-90
2023/05/07 10:48:06;;;;;;;3.78;2.63;;;;;;;;;;4942564;29;20055;-91
2023/05/07 10:50:31;;;;;;;3.95;2.53;;;;;;;;;;4944465;29;20118;-89
2023/05/07 10:53:15;;;;;;;4.22;2.47;;;;;;;;;;4946862;29;20127;-90
2023/05/07 10:55:40;;;;;;;3.97;2.60;;;;;;;;;;4945100;29;20092;-88
2023/05/07 10:58:21;;;;;;;3.37;2.10;;;;;;;;;;4947867;29;20029;-87
2023/05/07 11:00:47;;;;;;;3.65;2.60;;;;;;;;;;4937242;29;21079;-87
2023/05/07 11:03:12;;;;;;;3.75;2.70;;;;;;;;;;4922917;29;20496;-84
2023/05/07 11:05:38;;;;;;;2.97;2.45;;;;;;;;;;4929716;29;20428;-91
2023/05/07 11:08:04;;;;;;;3.38;2.58;;;;;;;;;;4920430;29;20062;-88
2023/05/07 11:10:48;;;;;;;3.58;2.38;;;;;;;;;;4947503;28;20035;-85
2023/05/07 11:13:14;;;;;;;2.78;2.08;;;;;;;;;;4927757;29;20670;-90
2023/05/07 11:15:41;;;;;;;2.45;2.25;;;;;;;;;;4930678;29;20031;-88
2023/05/07 11:18:07;;;;;;;5.30;2.50;;;;;;;;;;4945458;29;20039;-91
2023/05/07 11:20:44;;;;;;;3.17;2.00;;;;;;;;;;4942611;29;20035;-88
2023/05/07 11:23:28;;;;;;;2.40;2.20;;;;;;;;;;4937074;28;20033;-86
2023/05/07 11:25:58;;;;;;;3.45;2.33;;;;;;;;;;4931875;29;20046;-88
2023/05/07 11:28:23;;;;;;;2.60;2.28;;;;;;;;;;4929933;29;20511;-87
2023/05/07 11:30:49;;;;;;;2.33;2.13;;;;;;;;;;4940984;29;20020;-87
2023/05/07 11:33:16;;;;;;;2.30;2.10;;;;;;;;;;4927441;29;20019;-90
2023/05/07 11:35:42;;;;;;;3.15;2.88;;;;;;;;;;4941969;29;20068;-88
2023/05/07 11:38:08;;;;;;;2.95;2.65;;;;;;;;;;4936584;29;20401;-87
2023/05/07 11:40:33;;;;;;;2.75;2.40;;;;;;;;;;4921131;29;20050;-88
2023/05/07 11:42:58;;;;;;;2.50;2.30;;;;;;;;;;4936823;29;20038;-87
2023/05/07 11:45:27;;;;;;;4.30;2.65;;;;;;;;;;4934553;29;20035;-88
2023/05/07 11:47:52;;;;;;;4.65;2.45;;;;;;;;;;4927603;29;20066;-84
2023/05/07 11:50:17;;;;;;;3.30;2.40;;;;;;;;;;4941865;29;20125;-91
2023/05/07 11:52:50;;;;;;;3.08;2.55;;;;;;;;;;4939346;29;20279;-90
2023/05/07 11:55:18;;;;;;;2.60;2.40;;;;;;;;;;4945502;29;20409;-92
2023/05/07 11:57:43;;;;;;;2.67;2.47;;;;;;;;;;4929449;29;20111;-92
2023/05/07 12:00:09;;;;;;;2.55;2.35;;;;;;;;;;4923121;29;20121;-92
2023/05/07 12:02:35;;;;;;;2.30;1.95;;;;;;;;;;4946804;29;20025;-95
2023/05/07 12:05:00;;;;;;;3.33;2.45;;;;;;;;;;4942653;29;20035;-88
2023/05/07 12:07:25;;;;;;;2.50;2.33;;;;;;;;;;4933794;29;20465;-89
2023/05/07 12:09:51;;;;;;;2.80;2.50;;;;;;;;;;4924989;29;20034;-85
2023/05/07 12:12:17;;;;;;;2.67;2.25;;;;;;;;;;4943241;29;20039;-88
2023/05/07 12:14:43;;;;;;;2.50;2.30;;;;;;;;;;4943697;29;20366;-86
2023/05/07 12:17:09;;;;;;;2.35;2.00;;;;;;;;;;4938535;29;20059;-88
2023/05/07 12:19:35;;;;;;;2.30;2.20;;;;;;;;;;4908922;29;20020;-91
2023/05/07 12:22:02;;;;;;;3.63;2.08;;;;;;;;;;4938319;29;20030;-88
2023/05/07 12:24:27;;;;;;;2.60;2.40;;;;;;;;;;4929828;29;20028;-87
2023/05/07 12:26:52;;;;;;;2.42;2.22;;;;;;;;;;4944558;29;20019;-91
2023/05/07 12:29:21;;;;;;;2.53;2.33;;;;;;;;;;4945236;29;20027;-90
2023/05/07 12:31:46;;;;;;;2.50;2.30;;;;;;;;;;4942660;29;20027;-91
2023/05/07 12:34:12;;;;;;;4.03;2.25;;;;;;;;;;4944108;29;20391;-90
2023/05/07 12:36:40;;;;;;;2.45;2.25;;;;;;;;;;4927926;29;20107;-90
2023/05/07 12:39:08;;;;;;;3.10;2.80;;;;;;;;;;4928634;29;20031;-92
2023/05/07 12:41:54;;;;;;;2.58;2.28;;;;;;;;;;4942227;29;20035;-91
2023/05/07 12:44:21;;;;;;;2.92;2.10;;;;;;;;;;4940746;29;20027;-88
2023/05/07 12:46:46;;;;;;;2.72;2.53;;;;;;;;;;4946358;29;20031;-92
2023/05/07 12:49:12;;;;;;;2.47;2.28;;;;;;;;;;4944492;29;20436;-88
2023/05/07 12:51:37;;;;;;;2.33;2.13;;;;;;;;;;4943761;29;20644;-89
2023/05/07 12:54:02;;;;;;;2.63;2.42;;;;;;;;;;4927293;29;20026;-91
2023/05/07 12:56:30;;;;;;;2.42;2.22;;;;;;;;;;4934946;29;20034;-91
2023/05/07 12:58:57;;;;;;;2.17;1.98;;;;;;;;;;4945365;29;20589;-90
2023/05/07 13:01:28;;;;;;;1.90;1.80;;;;;;;;;;4944165;29;20019;-90
2023/05/07 13:03:53;;;;;;;2.75;2.20;;;;;;;;;;4945849;29;20027;-91
2023/05/07 13:06:19;;;;;;;3.08;2.50;;;;;;;;;;4942646;29;20042;-88
2023/05/07 13:08:44;;;;;;;2.83;2.53;;;;;;;;;;4944309;29;20024;-89
2023/05/07 13:11:10;;;;;;;2.80;2.60;;;;;;;;;;4944888;28;20317;-90
2023/05/07 13:13:36;;;;;;;4.70;2.33;;;;;;;;;;4928985;29;20058;-88
2023/05/07 13:16:02;;;;;;;4.22;2.58;;;;;;;;;;4945731;29;20015;-92
2023/05/07 13:18:29;;;;;;;2.53;2.33;;;;;;;;;;4927211;29;20031;-93
2023/05/07 13:20:54;;;;;;;2.78;2.58;;;;;;;;;;4945571;29;20023;-93
2023/05/07 13:23:20;;;;;;;4.45;2.63;;;;;;;;;;4927003;29;20405;-92
2023/05/07 13:25:45;;;;;;;2.50;2.30;;;;;;;;;;4943321;29;20063;-90
2023/05/07 13:28:11;;;;;;;3.08;2.60;;;;;;;;;;4925476;29;20030;-88
2023/05/07 13:30:36;;;;;;;3.03;2.75;;;;;;;;;;4928204;29;20031;-92
2023/05/07 13:33:01;;;;;;;2.80;2.35;;;;;;;;;;4947410;29;20098;-91
2023/05/07 13:35:27;;;;;;;5.45;2.53;;;;;;;;;;4948993;29;20023;-91
2023/05/07 13:37:52;;;;;;;2.90;2.70;;;;;;;;;;4952979;29;20038;-90
2023/05/07 13:40:19;;;;;;;2.88;2.60;;;;;;;;;;4954096;29;20275;-87
2023/05/07 13:42:44;;;;;;;2.60;2.40;;;;;;;;;;4931221;29;20024;-87
2023/05/07 13:45:10;;;;;;;2.65;2.38;;;;;;;;;;4944887;29;20026;-88
2023/05/07 13:47:35;;;;;;;5.22;2.88;;;;;;;;;;4931257;29;20027;-86
2023/05/07 13:50:00;;;;;;;9.47;2.83;;;;;;;;;;4928421;29;20074;-86
2023/05/07 13:52:26;;;;;;;2.67;2.47;;;;;;;;;;4946135;29;20298;-85
2023/05/07 13:54:52;;;;;;;3.15;2.75;;;;;;;;;;4946787;29;20027;-90
2023/05/07 13:57:17;;;;;;;4.43;3.00;;;;;;;;;;4946556;29;20095;-85
2023/05/07 13:59:42;;;;;;;5.20;3.15;;;;;;;;;;4946835;29;20521;-89
2023/05/07 14:02:08;;;;;;;3.33;2.90;;;;;;;;;;4941610;29;20169;-89
2023/05/07 14:04:34;;;;;;;3.28;3.03;;;;;;;;;;4942347;29;20031;-88
2023/05/07 14:06:59;;;;;;;3.95;2.83;;;;;;;;;;4946843;29;20019;-89
2023/05/07 14:09:25;;;;;;;3.20;2.90;;;;;;;;;;4931950;29;20023;-88
2023/05/07 14:11:51;;;;;;;5.30;3.55;;;;;;;;;;4946529;28;20031;-90
2023/05/07 14:14:19;;;;;;;3.25;3.05;;;;;;;;;;4931673;29;20028;-87
2023/05/07 14:16:45;;;;;;;3.92;2.97;;;;;;;;;;4930417;29;20043;-90
2023/05/07 14:19:10;;;;;;;3.20;2.97;;;;;;;;;;4929320;29;20430;-92
2023/05/07 14:21:36;;;;;;;3.60;3.30;;;;;;;;;;4929420;29;20028;-88
2023/05/07 14:24:01;;;;;;;5.43;3.83;;;;;;;;;;4933389;29;20027;-89
2023/05/07 14:26:26;;;;;;;3.20;3.00;;;;;;;;;;4943179;29;20035;-89
2023/05/07 14:28:54;;;;;;;5.63;3.25;;;;;;;;;;4928111;29;20055;-88
2023/05/07 14:31:20;;;;;;;4.50;3.47;;;;;;;;;;4938621;29;20020;-88
2023/05/07 14:33:45;;;;;;;3.30;2.97;;;;;;;;;;4933038;29;20046;-90
2023/05/07 14:36:10;;;;;;;3.40;3.10;;;;;;;;;;4931454;29;20053;-89
2023/05/07 14:38:36;;;;;;;2.70;2.50;;;;;;;;;;4944372;29;20027;-90
2023/05/07 14:41:01;;;;;;;3.55;3.00;;;;;;;;;;4947856;29;20298;-90
2023/05/07 14:43:26;;;;;;;3.15;2.83;;;;;;;;;;4948033;28;20024;-93
2023/05/07 14:45:51;;;;;;;3.00;2.80;;;;;;;;;;4929949;29;20777;-90
2023/05/07 14:48:17;;;;;;;6.00;2.90;;;;;;;;;;4948282;29;20266;-88
2023/05/07 14:50:42;;;;;;;7.60;4.22;;;;;;;;;;4929215;29;20034;-88
2023/05/07 14:53:08;;;;;;;5.68;3.38;;;;;;;;;;4947978;29;20023;-93
2023/05/07 14:55:33;;;;;;;4.40;3.23;;;;;;;;;;4933228;29;20024;-94
2023/05/07 14:57:59;;;;;;;3.20;2.70;;;;;;;;;;4930132;29;20776;-88
2023/05/07 15:00:24;;;;;;;3.42;2.40;;;;;;;;;;4943735;29;20118;-93
2023/05/07 15:02:49;;;;;;;3.63;2.88;;;;;;;;;;4929353;29;20015;-87
2023/05/07 15:05:15;;;;;;;4.90;2.83;;;;;;;;;;4945246;29;20041;-90
2023/05/07 15:07:40;;;;;;;3.53;3.15;;;;;;;;;;4946164;29;20039;-86
2023/05/07 15:10:06;;;;;;;6.23;2.90;;;;;;;;;;4941273;29;20119;-89
2023/05/07 15:12:31;;;;;;;4.72;2.67;;;;;;;;;;4943224;28;20306;-86
2023/05/07 15:14:56;;;;;;;3.13;2.83;;;;;;;;;;4927669;29;20082;-88
2023/05/07 15:17:22;;;;;;;4.60;2.80;;;;;;;;;;4945931;29;20029;-85
2023/05/07 15:19:47;;;;;;;3.15;2.85;;;;;;;;;;4943629;29;20023;-90
2023/05/07 15:22:12;;;;;;;3.75;2.35;;;;;;;;;;4943953;28;20405;-88
2023/05/07 15:24:37;;;;;;;3.45;2.35;;;;;;;;;;4944584;29;20397;-87
2023/05/07 15:27:03;;;;;;;2.90;2.40;;;;;;;;;;4944311;29;20057;-87
2023/05/07 15:29:28;;;;;;;3.55;2.42;;;;;;;;;;4945007;29;20275;-88
2023/05/07 15:31:54;;;;;;;3.50;2.33;;;;;;;;;;4927865;29;20027;-85
2023/05/07 15:34:20;;;;;;;6.85;2.70;;;;;;;;;;4926399;29;20499;-87
2023/05/07 15:36:45;;;;;;;3.63;2.47;;;;;;;;;;4926077;29;20050;-84
2023/05/07 15:39:10;;;;;;;2.67;2.42;;;;;;;;;;4924079;29;20023;-86
2023/05/07 15:41:36;;;;;;;2.53;2.30;;;;;;;;;;4944835;29;20015;-87
2023/05/07 15:44:02;;;;;;;2.28;2.08;;;;;;;;;;4942932;29;20090;-87
2023/05/07 15:46:27;;;;;;;3.33;2.50;;;;;;;;;;4944229;29;20094;-86
2023/05/07 15:48:53;;;;;;;3.07;2.50;;;;;;;;;;4943009;29;20027;-87
2023/05/07 15:51:19;;;;;;;2.50;2.30;;;;;;;;;;4942720;29;20774;-81
2023/05/07 15:53:45;;;;;;;3.72;2.45;;;;;;;;;;4938101;28;20058;-82
2023/05/07 15:56:10;;;;;;;2.95;2.53;;;;;;;;;;4916590;29;20494;-80
2023/05/07 15:58:36;;;;;;;3.65;2.60;;;;;;;;;;4945426;29;20050;-92
2023/05/07 16:01:01;;;;;;;4.78;2.83;;;;;;;;;;4924988;29;20058;-85
2023/05/07 16:03:27;;;;;;;6.38;2.53;;;;;;;;;;4926772;29;20627;-89
2023/05/07 16:05:53;;;;;;;3.45;2.70;;;;;;;;;;4925646;29;20035;-90
2023/05/07 16:08:18;;;;;;;4.15;2.90;;;;;;;;;;4926238;29;20022;-92
2023/05/07 16:10:43;;;;;;;6.90;2.80;;;;;;;;;;4943275;28;20019;-86
2023/05/07 16:13:09;;;;;;;2.77;2.53;;;;;;;;;;4922011;29;20669;-88
2023/05/07 16:15:34;;;;;;;8.05;3.88;;;;;;;;;;4935724;29;20271;-85
2023/05/07 16:18:00;;;;;;;7.72;2.47;;;;;;;;;;4937371;29;20058;-91
2023/05/07 16:20:28;;;;;;;3.55;3.15;;;;;;;;;;4925665;29;20626;-83
2023/05/07 16:22:54;;;;;;;4.75;2.60;;;;;;;;;;4936241;29;20023;-77
2023/05/07 16:25:19;;;;;;;4.85;2.63;;;;;;;;;;4941217;29;20094;-84
2023/05/07 16:27:45;;;;;;;4.65;2.65;;;;;;;;;;4937411;29;20015;-89
2023/05/07 16:30:10;;;;;;;4.88;2.78;;;;;;;;;;4937832;29;20102;-89
2023/05/07 16:32:36;;;;;;;5.45;2.75;;;;;;;;;;4937198;29;20027;-89
2023/05/07 16:35:01;;;;;;;3.60;2.90;;;;;;;;;;4940575;29;20053;-87
2023/05/07 16:37:27;;;;;;;4.43;2.67;;;;;;;;;;4938510;29;20454;-86
2023/05/07 16:39:52;;;;;;;5.75;2.58;;;;;;;;;;4940356;29;20027;-87
2023/05/07 16:42:17;;;;;;;3.58;3.00;;;;;;;;;;4941596;29;20095;-84
2023/05/07 16:44:43;;;;;;;2.67;2.47;;;;;;;;;;4923019;29;20077;-89
2023/05/07 16:47:08;;;;;;;5.22;2.97;;;;;;;;;;4941537;29;20444;-86
2023/05/07 16:49:33;;;;;;;4.50;3.10;;;;;;;;;;4938921;29;20058;-85
2023/05/07 16:51:59;;;;;;;5.25;3.30;;;;;;;;;;4921445;29;20099;-84
2023/05/07 16:54:24;;;;;;;3.85;3.03;;;;;;;;;;4936138;29;20457;-87
2023/05/07 16:56:49;;;;;;;3.60;3.20;;;;;;;;;;4939229;29;20030;-82
2023/05/07 16:59:18;;;;;;;5.32;3.30;;;;;;;;;;4920420;29;20343;-88
2023/05/07 17:01:43;;;;;;;3.47;3.03;;;;;;;;;;4918901;29;20023;-84
2023/05/07 17:04:08;;;;;;;4.05;2.85;;;;;;;;;;4937519;29;20090;-83
2023/05/07 17:06:34;;;;;;;3.47;3.15;;;;;;;;;;4919531;29;20035;-85
2023/05/07 17:08:59;;;;;;;3.90;3.50;;;;;;;;;;4932955;29;20123;-85
2023/05/07 17:11:29;;;;;;;6.85;3.15;;;;;;;;;;4941325;28;20031;-85
2023/05/07 17:13:55;;;;;;;5.60;3.53;;;;;;;;;;4928316;29;20083;-88
2023/05/07 17:16:20;;;;;;;4.10;3.55;;;;;;;;;;4935573;29;20459;-86
2023/05/07 17:18:45;;;;;;;3.72;3.30;;;;;;;;;;4918639;29;20016;-86
2023/05/07 17:21:11;;;;;;;5.65;3.42;;;;;;;;;;4929377;29;20015;-86
2023/05/07 17:23:36;;;;;;;3.50;3.10;;;;;;;;;;4938635;29;20078;-86
2023/05/07 17:26:01;;;;;;;4.00;3.20;;;;;;;;;;4921387;29;20737;-84
2023/05/07 17:28:27;;;;;;;3.65;2.90;;;;;;;;;;4921519;29;20833;-86
2023/05/07 17:30:52;;;;;;;4.53;3.03;;;;;;;;;;4923620;29;20505;-85
2023/05/07 17:33:17;;;;;;;3.40;3.13;;;;;;;;;;4940524;29;20028;-86
2023/05/07 17:35:42;;;;;;;4.00;3.55;;;;;;;;;;4922728;29;20709;-86
2023/05/07 17:38:08;;;;;;;4.15;3.42;;;;;;;;;;4941248;29;20439;-88
2023/05/07 17:40:33;;;;;;;4.20;3.73;;;;;;;;;;4922576;29;20027;-85
2023/05/07 17:43:05;;;;;;;7.03;4.00;;;;;;;;;;4924571;29;20263;-86
2023/05/07 17:48:35;;;;;;;4.93;3.40;;;;;;;;;;4942715;29;20042;-83
2023/05/07 17:51:11;;;;;;;6.63;3.55;;;;;;;;;;4944039;29;20031;-86
2023/05/07 18:02:53;;;;;;;8.98;3.83;;;;;;;;;;5037192;28;20013;-83
2023/05/07 18:10:52;;;;;;;3.78;3.47;;;;;;;;;;5085262;23;20089;-83
2023/05/07 18:16:34;;;;;;;3.47;3.17;;;;;;;;;;5014977;28;20065;-83
2023/05/07 18:18:59;;;;;;;4.50;3.75;;;;;;;;;;5004646;28;20052;-84
2023/05/07 18:21:30;;;;;;;5.50;3.67;;;;;;;;;;5013495;28;20010;-85
2023/05/07 18:23:55;;;;;;;3.97;3.67;;;;;;;;;;5017582;28;20066;-82
2023/05/07 18:26:21;;;;;;;4.05;3.67;;;;;;;;;;5029428;28;20042;-84
2023/05/07 18:29:16;;;;;;;4.07;3.73;;;;;;;;;;4998580;28;20029;-86
2023/05/07 18:31:47;;;;;;;5.57;4.00;;;;;;;;;;5008706;28;20392;-84
2023/05/07 18:34:13;;;;;;;4.97;3.90;;;;;;;;;;5039747;28;20099;-83
2023/05/07 18:36:43;;;;;;;4.65;3.58;;;;;;;;;;5020416;28;20010;-84
2023/05/07 18:39:09;;;;;;;3.78;3.53;;;;;;;;;;4979523;28;20065;-89
2023/05/07 18:49:21;;;;;;;3.97;3.67;;;;;;;;;;5034255;22;20487;-86
2023/05/07 18:51:46;;;;;;;4.50;3.58;;;;;;;;;;4992310;28;20045;-80
2023/05/07 18:54:11;;;;;;;8.32;3.75;;;;;;;;;;4999070;28;20031;-84
2023/05/07 18:56:38;;;;;;;9.88;3.63;;;;;;;;;;5001912;28;20057;-83
2023/05/07 18:59:03;;;;;;;4.15;3.83;;;;;;;;;;4999331;28;20018;-80
2023/05/07 19:01:33;;;;;;;3.45;3.15;;;;;;;;;;5024868;28;20044;-79
2023/05/07 19:04:02;;;;;;;5.00;3.60;;;;;;;;;;5025561;28;20014;-80
2023/05/07 19:09:14;;;;;;;5.25;3.28;;;;;;;;;;5012969;28;20530;-80
2023/05/07 19:11:42;;;;;;;3.25;2.80;;;;;;;;;;5013727;28;20026;-82
2023/05/07 19:14:09;;;;;;;3.55;2.80;;;;;;;;;;4993002;28;20440;-83
2023/05/07 19:16:35;;;;;;;3.70;3.13;;;;;;;;;;5007928;28;20098;-80
2023/05/07 19:19:02;;;;;;;3.30;3.00;;;;;;;;;;5012797;28;20030;-82
2023/05/07 19:21:56;;;;;;;3.05;2.75;;;;;;;;;;5030061;28;20038;-82